createdAt,value
2022-10-31T00:00:43.547Z,4.88
2022-10-31T00:01:43.522Z,4.91
2022-10-31T00:02:43.509Z,4.91
2022-10-31T00:03:43.435Z,4.83
2022-10-31T00:04:43.416Z,4.88
2022-10-31T00:05:43.407Z,4.79
2022-10-31T00:06:43.397Z,4.82
2022-10-31T00:07:43.369Z,4.85
2022-10-31T00:08:43.357Z,4.83
2022-10-31T00:09:43.327Z,4.85
2022-10-31T00:10:43.326Z,4.79
2022-10-31T00:11:43.308Z,4.78
2022-10-31T00:12:43.356Z,4.82
2022-10-31T00:13:43.276Z,4.82
2022-10-31T00:14:43.266Z,4.82
2022-10-31T00:15:43.249Z,4.75
2022-10-31T00:16:43.239Z,4.69
2022-10-31T00:17:43.240Z,4.71
2022-10-31T00:18:43.221Z,4.63
2022-10-31T00:19:43.189Z,4.63
2022-10-31T00:20:43.178Z,4.74
2022-10-31T00:21:43.169Z,4.72
2022-10-31T00:22:43.182Z,4.77
2022-10-31T00:23:43.131Z,4.72
2022-10-31T00:24:43.131Z,4.75
2022-10-31T00:25:43.109Z,4.77
2022-10-31T00:26:43.100Z,4.77
2022-10-31T00:27:43.111Z,4.75
2022-10-31T00:28:43.101Z,4.75
2022-10-31T00:29:43.060Z,4.75
2022-10-31T00:30:43.053Z,4.74
2022-10-31T00:31:43.042Z,4.67
2022-10-31T00:32:43.013Z,4.64
2022-10-31T00:33:43.010Z,4.69
2022-10-31T00:34:42.972Z,4.64
2022-10-31T00:35:42.950Z,4.63
2022-10-31T00:36:42.926Z,4.60
2022-10-31T00:37:42.893Z,4.66
2022-10-31T00:38:42.906Z,4.63
2022-10-31T00:39:42.873Z,4.61
2022-10-31T00:40:42.857Z,4.60
2022-10-31T00:41:42.847Z,4.60
2022-10-31T00:42:42.829Z,4.60
2022-10-31T00:43:42.824Z,4.59
2022-10-31T00:44:42.814Z,4.61
2022-10-31T00:45:42.805Z,4.59
2022-10-31T00:46:42.785Z,4.63
2022-10-31T00:47:42.764Z,4.60
2022-10-31T00:48:42.807Z,4.49
2022-10-31T00:49:42.755Z,4.49
2022-10-31T00:50:42.750Z,4.46
2022-10-31T00:51:42.735Z,4.49
2022-10-31T00:52:42.733Z,4.42
2022-10-31T00:53:42.727Z,4.43
2022-10-31T00:54:42.736Z,4.43
2022-10-31T00:55:42.698Z,4.41
2022-10-31T00:56:42.695Z,4.38
2022-10-31T00:57:42.667Z,4.35
2022-10-31T00:58:42.797Z,4.38
2022-10-31T00:59:42.655Z,4.39
2022-10-31T01:00:44.595Z,4.38
2022-10-31T01:01:42.654Z,4.36
2022-10-31T01:02:42.721Z,4.41
2022-10-31T01:03:42.587Z,4.35
2022-10-31T01:04:42.599Z,4.36
2022-10-31T01:05:42.581Z,4.34
2022-10-31T01:06:42.559Z,4.35
2022-10-31T01:07:42.549Z,4.36
2022-10-31T01:08:42.551Z,4.34
2022-10-31T01:09:42.530Z,4.42
2022-10-31T01:10:42.537Z,4.35
2022-10-31T01:11:42.500Z,4.35
2022-10-31T01:12:42.480Z,4.35
2022-10-31T01:13:42.474Z,4.35
2022-10-31T01:16:17.966Z,4.36
2022-10-31T01:17:17.910Z,4.30
2022-10-31T01:18:17.892Z,4.31
2022-10-31T01:19:17.829Z,4.30
2022-10-31T01:20:17.792Z,4.30
2022-10-31T01:21:17.740Z,4.30
2022-10-31T01:22:17.706Z,4.23
2022-10-31T01:23:17.661Z,4.26
2022-10-31T01:24:17.621Z,4.20
2022-10-31T01:25:17.601Z,4.18
2022-10-31T01:26:17.559Z,4.17
2022-10-31T01:27:17.521Z,4.18
2022-10-31T01:28:17.505Z,4.16
2022-10-31T01:29:17.451Z,4.24
2022-10-31T01:30:17.411Z,4.20
2022-10-31T01:31:17.360Z,4.16
2022-10-31T01:32:17.312Z,4.18
2022-10-31T01:33:17.280Z,4.13
2022-10-31T01:34:17.230Z,4.20
2022-10-31T01:35:17.204Z,4.18
2022-10-31T01:36:17.143Z,4.23
2022-10-31T01:37:17.125Z,4.12
2022-10-31T01:38:17.064Z,4.10
2022-10-31T01:39:17.046Z,4.13
2022-10-31T01:40:16.994Z,4.13
2022-10-31T01:41:16.953Z,4.12
2022-10-31T01:42:16.893Z,4.12
2022-10-31T01:43:16.927Z,4.03
2022-10-31T01:44:16.900Z,4.08
2022-10-31T01:45:16.773Z,4.08
2022-10-31T01:46:16.734Z,4.08
2022-10-31T01:47:16.684Z,4.08
2022-10-31T01:48:16.636Z,4.05
2022-10-31T01:49:16.605Z,4.08
2022-10-31T01:50:16.565Z,4.13
2022-10-31T01:51:16.527Z,4.08
2022-10-31T01:52:16.478Z,4.10
2022-10-31T01:53:16.447Z,4.17
2022-10-31T01:54:16.396Z,4.10
2022-10-31T01:55:16.377Z,4.09
2022-10-31T01:56:16.337Z,4.05
2022-10-31T01:57:16.288Z,4.06
2022-10-31T01:58:16.327Z,4.08
2022-10-31T01:59:16.230Z,4.03
2022-10-31T02:00:16.188Z,4.05
2022-10-31T02:01:16.271Z,4.05
2022-10-31T02:02:16.198Z,4.00
2022-10-31T02:03:16.099Z,4.10
2022-10-31T02:04:16.066Z,4.03
2022-10-31T02:05:16.016Z,4.05
2022-10-31T02:06:16.017Z,4.03
2022-10-31T02:07:15.951Z,4.03
2022-10-31T02:08:15.919Z,4.05
2022-10-31T02:09:15.877Z,4.06
2022-10-31T02:10:15.841Z,4.06
2022-10-31T02:11:15.801Z,4.00
2022-10-31T02:12:15.770Z,4.03
2022-10-31T02:13:15.807Z,4.00
2022-10-31T02:14:15.681Z,4.00
2022-10-31T02:15:15.630Z,3.92
2022-10-31T02:16:15.601Z,3.90
2022-10-31T02:17:15.582Z,3.94
2022-10-31T02:18:15.533Z,3.94
2022-10-31T02:19:15.462Z,3.92
2022-10-31T02:20:15.448Z,3.96
2022-10-31T02:21:15.391Z,3.98
2022-10-31T02:22:15.382Z,3.96
2022-10-31T02:23:15.314Z,3.99
2022-10-31T02:24:15.291Z,3.99
2022-10-31T02:25:15.262Z,3.96
2022-10-31T02:26:15.202Z,3.91
2022-10-31T02:27:15.175Z,3.92
2022-10-31T02:28:15.169Z,3.91
2022-10-31T02:29:15.074Z,3.91
2022-10-31T02:30:15.056Z,3.91
2022-10-31T02:31:15.012Z,3.87
2022-10-31T02:32:14.974Z,3.84
2022-10-31T02:33:14.936Z,3.81
2022-10-31T02:34:14.883Z,3.82
2022-10-31T02:35:14.854Z,3.81
2022-10-31T02:36:14.815Z,3.82
2022-10-31T02:37:14.766Z,3.81
2022-10-31T02:38:14.736Z,3.78
2022-10-31T02:39:14.686Z,3.80
2022-10-31T02:40:14.654Z,3.80
2022-10-31T02:41:14.605Z,3.78
2022-10-31T02:42:14.575Z,3.80
2022-10-31T02:44:14.488Z,3.84
2022-10-31T02:45:14.438Z,3.84
2022-10-31T02:46:14.411Z,3.80
2022-10-31T02:47:14.368Z,3.84
2022-10-31T02:48:14.336Z,3.76
2022-10-31T02:49:14.282Z,3.80
2022-10-31T02:50:14.240Z,3.80
2022-10-31T02:51:14.219Z,3.73
2022-10-31T02:52:14.186Z,3.76
2022-10-31T02:53:14.148Z,3.76
2022-10-31T02:54:14.099Z,3.74
2022-10-31T02:55:14.070Z,3.72
2022-10-31T02:56:14.041Z,3.72
2022-10-31T02:57:14.000Z,3.69
2022-10-31T02:58:14.052Z,3.66
2022-10-31T02:59:13.930Z,3.66
2022-10-31T03:00:13.883Z,3.74
2022-10-31T03:01:13.909Z,3.69
2022-10-31T03:02:13.982Z,3.73
2022-10-31T03:03:13.762Z,3.74
2022-10-31T03:04:13.730Z,3.74
2022-10-31T03:05:13.713Z,3.72
2022-10-31T03:06:13.643Z,3.72
2022-10-31T03:07:13.609Z,3.69
2022-10-31T03:08:13.581Z,3.70
2022-10-31T03:09:13.550Z,3.69
2022-10-31T03:10:13.492Z,3.69
2022-10-31T03:11:13.452Z,3.74
2022-10-31T03:12:13.412Z,3.76
2022-10-31T03:13:13.508Z,3.73
2022-10-31T03:14:13.347Z,3.73
2022-10-31T03:15:13.296Z,3.66
2022-10-31T03:16:13.250Z,3.66
2022-10-31T03:17:13.205Z,3.66
2022-10-31T03:18:13.165Z,3.64
2022-10-31T03:19:13.153Z,3.66
2022-10-31T03:20:13.093Z,3.62
2022-10-31T03:21:13.057Z,3.69
2022-10-31T03:22:13.005Z,3.62
2022-10-31T03:23:12.985Z,3.55
2022-10-31T03:24:12.943Z,3.54
2022-10-31T03:25:12.924Z,3.56
2022-10-31T03:26:12.877Z,3.60
2022-10-31T03:27:12.847Z,3.54
2022-10-31T03:28:12.842Z,3.60
2022-10-31T03:29:12.761Z,3.55
2022-10-31T03:30:12.735Z,3.56
2022-10-31T03:31:12.684Z,3.59
2022-10-31T03:32:12.640Z,3.60
2022-10-31T03:33:12.605Z,3.54
2022-10-31T03:34:12.564Z,3.54
2022-10-31T03:35:12.557Z,3.59
2022-10-31T03:36:12.496Z,3.55
2022-10-31T03:37:12.458Z,3.52
2022-10-31T03:38:12.427Z,3.54
2022-10-31T03:39:12.388Z,3.49
2022-10-31T03:40:12.359Z,3.48
2022-10-31T03:41:12.318Z,3.46
2022-10-31T03:42:12.298Z,3.45
2022-10-31T03:43:12.326Z,3.46
2022-10-31T03:44:12.229Z,3.44
2022-10-31T03:45:12.201Z,3.48
2022-10-31T03:46:12.129Z,3.49
2022-10-31T03:47:12.121Z,3.46
2022-10-31T03:48:12.077Z,3.45
2022-10-31T03:49:12.031Z,3.48
2022-10-31T03:50:12.001Z,3.49
2022-10-31T03:51:11.971Z,3.48
2022-10-31T03:52:11.931Z,3.51
2022-10-31T03:53:11.892Z,3.51
2022-10-31T03:54:11.864Z,3.54
2022-10-31T03:55:11.844Z,3.48
2022-10-31T03:56:11.793Z,3.48
2022-10-31T03:57:11.773Z,3.49
2022-10-31T03:58:11.835Z,3.51
2022-10-31T03:59:11.704Z,3.46
2022-10-31T04:00:11.664Z,3.44
2022-10-31T04:01:11.766Z,3.36
2022-10-31T04:02:11.740Z,3.36
2022-10-31T04:03:11.595Z,3.33
2022-10-31T04:04:11.575Z,3.30
2022-10-31T04:05:11.525Z,3.35
2022-10-31T04:06:11.505Z,3.33
2022-10-31T04:07:11.465Z,3.30
2022-10-31T04:08:11.446Z,3.32
2022-10-31T04:09:11.404Z,3.33
2022-10-31T04:10:11.367Z,3.27
2022-10-31T04:11:11.361Z,3.27
2022-10-31T04:12:11.310Z,3.27
2022-10-31T04:13:11.352Z,3.35
2022-10-31T04:14:11.245Z,3.22
2022-10-31T04:15:11.224Z,3.26
2022-10-31T04:16:14.226Z,3.25
2022-10-31T04:17:12.166Z,3.30
2022-10-31T04:18:11.116Z,3.30
2022-10-31T04:19:11.076Z,3.29
2022-10-31T04:20:11.036Z,3.32
2022-10-31T04:21:11.015Z,3.26
2022-10-31T04:22:10.986Z,3.37
2022-10-31T04:23:14.613Z,3.42
2022-10-31T04:24:10.898Z,3.46
2022-10-31T04:25:10.869Z,3.46
2022-10-31T04:26:10.840Z,3.44
2022-10-31T04:27:10.811Z,3.41
2022-10-31T04:28:10.828Z,3.33
2022-10-31T04:29:10.738Z,3.33
2022-10-31T04:30:10.699Z,3.32
2022-10-31T04:31:10.671Z,3.32
2022-10-31T04:32:10.641Z,3.30
2022-10-31T04:33:10.619Z,3.27
2022-10-31T04:34:10.561Z,3.29
2022-10-31T04:35:10.540Z,3.29
2022-10-31T04:36:10.500Z,3.33
2022-10-31T04:37:10.472Z,3.27
2022-10-31T04:38:10.428Z,3.30
2022-10-31T04:39:10.389Z,3.30
2022-10-31T04:40:10.341Z,3.35
2022-10-31T04:41:10.311Z,3.30
2022-10-31T04:42:10.293Z,3.33
2022-10-31T04:43:10.353Z,3.32
2022-10-31T04:44:10.202Z,3.30
2022-10-31T04:45:10.172Z,3.29
2022-10-31T04:46:10.134Z,3.23
2022-10-31T04:47:10.112Z,3.27
2022-10-31T04:48:10.085Z,3.29
2022-10-31T04:49:10.032Z,3.25
2022-10-31T04:50:09.993Z,3.25
2022-10-31T04:51:09.976Z,3.15
2022-10-31T04:52:09.943Z,3.22
2022-10-31T04:53:09.923Z,3.25
2022-10-31T04:54:09.877Z,3.23
2022-10-31T04:55:09.836Z,3.18
2022-10-31T04:56:09.792Z,3.27
2022-10-31T04:57:09.763Z,3.26
2022-10-31T04:58:09.788Z,3.29
2022-10-31T04:59:09.695Z,3.26
2022-10-31T05:00:09.643Z,3.27
2022-10-31T05:01:09.730Z,3.33
2022-10-31T05:02:09.753Z,3.27
2022-10-31T05:03:09.555Z,3.25
2022-10-31T05:04:09.495Z,3.23
2022-10-31T05:05:09.461Z,3.18
2022-10-31T05:06:09.425Z,3.17
2022-10-31T05:07:09.386Z,3.23
2022-10-31T05:08:09.347Z,3.14
2022-10-31T05:09:09.336Z,3.18
2022-10-31T05:10:09.287Z,3.14
2022-10-31T05:11:09.252Z,3.18
2022-10-31T05:12:09.223Z,3.15
2022-10-31T05:13:09.225Z,3.17
2022-10-31T05:14:09.148Z,3.14
2022-10-31T05:15:09.128Z,3.18
2022-10-31T05:16:09.088Z,3.12
2022-10-31T05:17:09.068Z,3.11
2022-10-31T05:18:09.037Z,3.12
2022-10-31T05:19:09.018Z,3.11
2022-10-31T05:20:09.008Z,3.14
2022-10-31T05:21:08.960Z,3.09
2022-10-31T05:22:08.929Z,3.12
2022-10-31T05:23:08.889Z,3.09
2022-10-31T05:24:08.860Z,3.11
2022-10-31T05:25:08.847Z,3.11
2022-10-31T05:26:08.789Z,3.11
2022-10-31T05:27:08.771Z,3.08
2022-10-31T05:28:08.730Z,3.11
2022-10-31T05:29:08.701Z,3.07
2022-10-31T05:30:08.701Z,3.09
2022-10-31T05:31:08.652Z,3.11
2022-10-31T05:32:08.629Z,3.11
2022-10-31T05:33:08.603Z,3.07
2022-10-31T05:34:08.570Z,3.09
2022-10-31T05:35:08.562Z,3.08
2022-10-31T05:36:08.512Z,3.02
2022-10-31T05:37:08.492Z,2.97
2022-10-31T05:38:08.450Z,3.04
2022-10-31T05:39:08.432Z,3.00
2022-10-31T05:40:08.581Z,3.04
2022-10-31T05:41:08.377Z,3.02
2022-10-31T05:42:08.332Z,3.05
2022-10-31T05:43:08.303Z,3.00
2022-10-31T05:44:08.273Z,3.02
2022-10-31T05:45:08.234Z,2.97
2022-10-31T05:46:08.221Z,2.97
2022-10-31T05:47:08.184Z,2.99
2022-10-31T05:48:08.154Z,2.96
2022-10-31T05:49:08.124Z,2.99
2022-10-31T05:50:08.092Z,2.94
2022-10-31T05:51:08.064Z,2.94
2022-10-31T05:52:08.015Z,2.94
2022-10-31T05:53:08.010Z,2.97
2022-10-31T05:54:10.768Z,2.93
2022-10-31T05:55:08.960Z,2.90
2022-10-31T05:56:07.931Z,2.90
2022-10-31T05:57:07.906Z,2.84
2022-10-31T05:58:07.857Z,2.90
2022-10-31T05:59:07.849Z,2.90
2022-10-31T06:00:07.817Z,2.89
2022-10-31T06:01:07.821Z,2.90
2022-10-31T06:02:07.772Z,2.89
2022-10-31T06:04:07.683Z,2.87
2022-10-31T06:05:07.759Z,2.89
2022-10-31T06:06:07.644Z,2.93
2022-10-31T06:07:07.610Z,2.97
2022-10-31T06:08:07.582Z,2.94
2022-10-31T06:09:07.551Z,2.96
2022-10-31T06:10:07.516Z,2.99
2022-10-31T06:11:07.497Z,3.00
2022-10-31T06:12:07.487Z,3.00
2022-10-31T06:13:07.440Z,2.93
2022-10-31T06:14:07.399Z,2.90
2022-10-31T06:15:07.389Z,2.90
2022-10-31T06:16:07.348Z,2.87
2022-10-31T06:17:07.319Z,2.87
2022-10-31T06:18:07.298Z,2.90
2022-10-31T06:19:07.240Z,2.90
2022-10-31T06:20:07.201Z,2.90
2022-10-31T06:21:07.180Z,2.89
2022-10-31T06:22:07.132Z,2.96
2022-10-31T06:23:07.130Z,2.97
2022-10-31T06:24:07.080Z,2.94
2022-10-31T06:25:07.063Z,2.93
2022-10-31T06:26:07.011Z,2.94
2022-10-31T06:27:07.002Z,2.96
2022-10-31T06:28:06.971Z,2.97
2022-10-31T06:29:06.937Z,2.97
2022-10-31T06:30:06.905Z,2.99
2022-10-31T06:31:06.872Z,3.02
2022-10-31T06:32:06.852Z,3.08
2022-10-31T06:33:06.826Z,3.02
2022-10-31T06:34:06.802Z,3.08
2022-10-31T06:35:06.775Z,3.15
2022-10-31T06:36:06.732Z,3.15
2022-10-31T06:37:06.723Z,3.15
2022-10-31T06:38:06.728Z,3.29
2022-10-31T06:39:06.664Z,3.33
2022-10-31T06:40:06.637Z,3.26
2022-10-31T06:41:06.602Z,3.33
2022-10-31T06:42:06.576Z,3.45
2022-10-31T06:43:06.543Z,3.45
2022-10-31T06:44:08.868Z,3.55
2022-10-31T06:45:06.496Z,3.49
2022-10-31T06:46:06.455Z,3.54
2022-10-31T06:47:06.425Z,3.55
2022-10-31T06:48:17.936Z,3.63
2022-10-31T06:49:07.396Z,3.55
2022-10-31T06:50:06.350Z,3.56
2022-10-31T06:51:06.331Z,3.56
2022-10-31T06:52:06.277Z,3.62
2022-10-31T06:53:06.272Z,3.60
2022-10-31T06:54:06.207Z,3.64
2022-10-31T06:55:06.196Z,3.63
2022-10-31T06:56:06.145Z,3.66
2022-10-31T06:57:06.108Z,3.70
2022-10-31T06:58:06.425Z,3.66
2022-10-31T06:59:06.047Z,3.74
2022-10-31T07:00:06.034Z,3.78
2022-10-31T07:01:06.084Z,3.84
2022-10-31T07:02:06.088Z,3.90
2022-10-31T07:03:05.940Z,3.88
2022-10-31T07:04:05.908Z,3.96
2022-10-31T07:05:05.887Z,4.03
2022-10-31T07:06:05.858Z,4.08
2022-10-31T07:07:05.809Z,4.16
2022-10-31T07:08:05.780Z,4.18
2022-10-31T07:09:05.747Z,4.16
2022-10-31T07:10:05.759Z,4.21
2022-10-31T07:11:05.700Z,4.24
2022-10-31T07:12:05.650Z,4.28
2022-10-31T07:13:05.633Z,4.35
2022-10-31T07:14:55.945Z,4.35
2022-10-31T07:15:55.914Z,4.45
2022-10-31T07:16:55.852Z,4.49
2022-10-31T07:17:55.795Z,4.53
2022-10-31T07:18:55.765Z,4.59
2022-10-31T07:19:55.726Z,4.60
2022-10-31T07:20:55.689Z,4.63
2022-10-31T07:21:55.626Z,4.66
2022-10-31T07:22:55.584Z,4.71
2022-10-31T07:23:55.535Z,4.72
2022-10-31T07:24:55.476Z,4.78
2022-10-31T07:25:55.428Z,4.77
2022-10-31T07:26:55.470Z,4.83
2022-10-31T07:27:55.335Z,4.88
2022-10-31T07:28:55.280Z,4.89
2022-10-31T07:29:55.234Z,4.98
2022-10-31T07:30:55.192Z,5.00
2022-10-31T07:31:55.161Z,5.03
2022-10-31T07:32:55.079Z,5.07
2022-10-31T07:33:55.029Z,5.16
2022-10-31T07:34:54.969Z,5.14
2022-10-31T07:35:54.928Z,5.21
2022-10-31T07:36:54.948Z,5.25
2022-10-31T07:37:54.858Z,5.32
2022-10-31T07:38:54.770Z,5.37
2022-10-31T07:39:54.729Z,5.50
2022-10-31T07:40:54.672Z,5.59
2022-10-31T07:41:54.601Z,5.65
2022-10-31T07:42:54.582Z,5.72
2022-10-31T07:43:54.508Z,5.79
2022-10-31T07:44:56.827Z,5.80
2022-10-31T07:45:54.416Z,5.90
2022-10-31T07:46:54.336Z,5.95
2022-10-31T07:47:54.303Z,5.98
2022-10-31T07:48:54.243Z,6.06
2022-10-31T07:49:54.170Z,6.11
2022-10-31T07:50:54.101Z,6.19
2022-10-31T07:51:54.043Z,6.28
2022-10-31T07:52:54.023Z,6.32
2022-10-31T07:53:53.941Z,6.40
2022-10-31T07:54:53.894Z,6.45
2022-10-31T07:55:53.835Z,6.52
2022-10-31T07:56:53.780Z,6.56
2022-10-31T07:57:53.724Z,6.63
2022-10-31T07:58:53.663Z,6.70
2022-10-31T07:59:53.586Z,6.78
2022-10-31T08:00:53.645Z,6.81
2022-10-31T08:01:53.474Z,6.99
2022-10-31T08:02:53.402Z,6.96
2022-10-31T08:03:53.344Z,7.04
2022-10-31T08:04:55.913Z,7.13
2022-10-31T08:05:54.176Z,7.18
2022-10-31T08:06:53.095Z,7.22
2022-10-31T08:07:53.028Z,7.26
2022-10-31T08:08:52.967Z,7.33
2022-10-31T08:09:52.867Z,7.40
2022-10-31T08:10:52.806Z,7.52
2022-10-31T08:11:52.717Z,7.54
2022-10-31T08:12:52.646Z,7.61
2022-10-31T08:13:52.591Z,7.69
2022-10-31T08:14:52.534Z,7.78
2022-10-31T08:15:52.427Z,7.87
2022-10-31T08:16:52.354Z,7.92
2022-10-31T08:17:52.281Z,7.98
2022-10-31T08:18:52.212Z,8.05
2022-10-31T08:19:52.119Z,8.13
2022-10-31T08:20:52.056Z,8.16
2022-10-31T08:21:51.963Z,8.29
2022-10-31T08:22:51.889Z,8.32
2022-10-31T08:23:51.810Z,8.42
2022-10-31T08:24:51.759Z,8.55
2022-10-31T08:25:51.660Z,8.59
2022-10-31T08:26:51.576Z,8.70
2022-10-31T08:27:51.492Z,8.72
2022-10-31T08:28:51.443Z,8.81
2022-10-31T08:29:51.371Z,8.88
2022-10-31T08:30:51.270Z,8.90
2022-10-31T08:31:51.171Z,9.03
2022-10-31T08:32:51.124Z,9.03
2022-10-31T08:33:51.014Z,9.04
2022-10-31T08:34:50.965Z,9.15
2022-10-31T08:35:50.852Z,9.22
2022-10-31T08:36:50.779Z,9.29
2022-10-31T08:37:50.676Z,9.32
2022-10-31T08:38:50.595Z,9.40
2022-10-31T08:39:50.513Z,9.44
2022-10-31T08:40:50.415Z,9.48
2022-10-31T08:41:50.341Z,9.55
2022-10-31T08:42:50.226Z,9.59
2022-10-31T08:43:50.127Z,9.66
2022-10-31T08:44:50.070Z,9.70
2022-10-31T08:45:49.951Z,9.77
2022-10-31T08:46:49.852Z,9.85
2022-10-31T08:47:49.746Z,9.88
2022-10-31T08:48:49.657Z,9.93
2022-10-31T08:49:49.568Z,9.99
2022-10-31T08:50:49.473Z,10.03
2022-10-31T08:51:49.359Z,10.08
2022-10-31T08:53:03.653Z,10.14
2022-10-31T08:53:50.164Z,10.26
2022-10-31T08:54:49.089Z,10.24
2022-10-31T08:55:48.984Z,10.30
2022-10-31T08:56:48.869Z,10.39
2022-10-31T08:57:48.777Z,10.43
2022-10-31T08:58:48.675Z,10.57
2022-10-31T08:59:48.561Z,10.58
2022-10-31T09:00:48.537Z,10.65
2022-10-31T09:01:48.381Z,10.68
2022-10-31T09:02:48.260Z,10.75
2022-10-31T09:03:48.151Z,10.80
2022-10-31T09:04:48.043Z,10.80
2022-10-31T09:05:47.980Z,10.93
2022-10-31T09:07:07.955Z,10.97
2022-10-31T09:07:48.714Z,11.04
2022-10-31T09:08:47.624Z,11.13
2022-10-31T09:09:47.513Z,11.18
2022-10-31T09:10:47.403Z,11.22
2022-10-31T09:11:47.294Z,11.30
2022-10-31T09:12:47.193Z,11.34
2022-10-31T09:13:47.074Z,11.43
2022-10-31T09:14:46.974Z,11.52
2022-10-31T09:15:46.867Z,11.52
2022-10-31T09:16:46.745Z,11.61
2022-10-31T09:17:46.634Z,11.70
2022-10-31T09:18:46.525Z,11.79
2022-10-31T09:19:46.427Z,11.88
2022-10-31T09:20:46.327Z,11.93
2022-10-31T09:21:46.199Z,11.97
2022-10-31T09:22:46.077Z,12.11
2022-10-31T09:23:46.238Z,12.13
2022-10-31T09:24:45.836Z,12.23
2022-10-31T09:25:50.207Z,12.32
2022-10-31T09:26:46.600Z,12.33
2022-10-31T09:27:45.477Z,12.46
2022-10-31T09:28:45.368Z,12.53
2022-10-31T09:29:45.230Z,12.62
2022-10-31T09:30:45.110Z,12.69
2022-10-31T09:31:45.266Z,12.76
2022-10-31T09:32:44.870Z,12.86
2022-10-31T09:33:44.739Z,12.96
2022-10-31T09:34:44.622Z,13.05
2022-10-31T09:35:44.503Z,13.09
2022-10-31T09:36:44.381Z,13.14
2022-10-31T09:37:44.240Z,13.21
2022-10-31T09:38:44.112Z,13.29
2022-10-31T09:39:43.993Z,13.38
2022-10-31T09:40:43.875Z,13.43
2022-10-31T09:41:43.769Z,13.47
2022-10-31T09:42:43.608Z,13.58
2022-10-31T09:43:43.476Z,13.67
2022-10-31T09:44:43.363Z,13.75
2022-10-31T09:45:43.219Z,13.80
2022-10-31T09:46:43.124Z,13.85
2022-10-31T09:47:42.956Z,13.94
2022-10-31T09:48:42.850Z,14.01
2022-10-31T09:49:42.772Z,14.03
2022-10-31T09:50:42.580Z,14.16
2022-10-31T09:51:42.440Z,14.21
2022-10-31T09:52:42.305Z,14.28
2022-10-31T09:53:42.156Z,14.31
2022-10-31T09:54:42.026Z,14.37
2022-10-31T09:55:41.904Z,14.46
2022-10-31T09:56:41.779Z,14.55
2022-10-31T09:57:41.660Z,14.56
2022-10-31T09:58:41.552Z,14.59
2022-10-31T09:59:41.350Z,14.66
2022-10-31T10:00:41.264Z,14.70
2022-10-31T10:01:41.239Z,14.71
2022-10-31T10:02:40.978Z,14.79
2022-10-31T10:03:40.810Z,14.87
2022-10-31T10:04:40.681Z,14.90
2022-10-31T10:05:40.539Z,14.97
2022-10-31T10:06:40.382Z,15.04
2022-10-31T10:07:40.226Z,15.10
2022-10-31T10:08:40.125Z,15.10
2022-10-31T10:09:39.943Z,15.20
2022-10-31T10:10:39.794Z,15.19
2022-10-31T10:11:39.659Z,15.26
2022-10-31T10:12:39.524Z,15.32
2022-10-31T10:13:39.403Z,15.44
2022-10-31T10:14:39.235Z,15.51
2022-10-31T10:15:39.074Z,15.54
2022-10-31T10:16:38.924Z,15.60
2022-10-31T10:17:38.786Z,15.66
2022-10-31T10:18:38.666Z,15.69
2022-10-31T10:19:38.479Z,15.72
2022-10-31T10:20:38.338Z,15.78
2022-10-31T10:21:38.186Z,15.80
2022-10-31T10:22:38.043Z,15.88
2022-10-31T10:23:37.876Z,15.98
2022-10-31T10:24:37.755Z,16.06
2022-10-31T10:25:37.595Z,16.10
2022-10-31T10:26:37.440Z,16.16
2022-10-31T10:27:37.318Z,16.16
2022-10-31T10:28:37.140Z,16.18
2022-10-31T10:29:36.994Z,16.25
2022-10-31T10:30:36.851Z,16.25
2022-10-31T10:31:36.686Z,16.28
2022-10-31T10:32:36.542Z,16.29
2022-10-31T10:33:36.384Z,16.36
2022-10-31T10:34:36.231Z,16.43
2022-10-31T10:35:36.078Z,16.47
2022-10-31T10:36:35.912Z,16.44
2022-10-31T10:37:35.753Z,16.44
2022-10-31T10:38:35.603Z,16.49
2022-10-31T10:39:35.468Z,16.54
2022-10-31T10:40:35.307Z,16.59
2022-10-31T10:41:35.142Z,16.61
2022-10-31T10:42:34.995Z,16.61
2022-10-31T10:43:34.855Z,16.73
2022-10-31T10:44:34.668Z,16.72
2022-10-31T10:45:34.540Z,16.69
2022-10-31T10:46:34.376Z,16.74
2022-10-31T10:47:34.221Z,16.74
2022-10-31T10:48:34.197Z,16.79
2022-10-31T10:49:33.881Z,16.88
2022-10-31T10:50:33.746Z,16.83
2022-10-31T10:51:54.655Z,16.80
2022-10-31T10:52:42.161Z,16.87
2022-10-31T10:53:34.260Z,16.84
2022-10-31T10:54:33.104Z,16.94
2022-10-31T10:55:32.961Z,16.94
2022-10-31T10:56:32.798Z,17.04
2022-10-31T10:57:32.633Z,17.09
2022-10-31T10:58:32.483Z,17.13
2022-10-31T10:59:32.302Z,17.10
2022-10-31T11:00:32.216Z,17.19
2022-10-31T11:01:31.986Z,17.20
2022-10-31T11:02:31.826Z,17.22
2022-10-31T11:03:31.651Z,17.27
2022-10-31T11:04:31.488Z,17.31
2022-10-31T11:05:31.333Z,17.34
2022-10-31T11:06:31.172Z,17.38
2022-10-31T11:07:30.991Z,17.38
2022-10-31T11:08:30.842Z,17.41
2022-10-31T11:09:30.674Z,17.43
2022-10-31T11:10:30.516Z,17.43
2022-10-31T11:11:30.353Z,17.43
2022-10-31T11:12:30.177Z,17.41
2022-10-31T11:13:30.006Z,17.43
2022-10-31T11:14:29.846Z,17.46
2022-10-31T11:15:29.706Z,17.50
2022-10-31T11:16:29.517Z,17.50
2022-10-31T11:17:29.339Z,17.52
2022-10-31T11:18:29.170Z,17.56
2022-10-31T11:19:28.987Z,17.56
2022-10-31T11:20:28.829Z,17.54
2022-10-31T11:21:28.685Z,17.69
2022-10-31T11:22:28.485Z,17.66
2022-10-31T11:23:28.321Z,17.69
2022-10-31T11:24:28.141Z,17.73
2022-10-31T11:25:27.978Z,17.76
2022-10-31T11:26:27.840Z,17.68
2022-10-31T11:27:27.636Z,17.76
2022-10-31T11:28:27.466Z,17.76
2022-10-31T11:29:27.287Z,17.83
2022-10-31T11:30:27.122Z,17.90
2022-10-31T11:31:26.962Z,18.01
2022-10-31T11:32:26.786Z,18.08
2022-10-31T11:33:26.603Z,18.09
2022-10-31T11:34:26.422Z,18.15
2022-10-31T11:35:26.277Z,18.15
2022-10-31T11:36:26.114Z,18.23
2022-10-31T11:37:25.885Z,18.23
2022-10-31T11:38:25.730Z,18.26
2022-10-31T11:39:25.547Z,18.36
2022-10-31T11:40:25.375Z,18.34
2022-10-31T11:41:25.198Z,18.33
2022-10-31T11:42:25.047Z,18.31
2022-10-31T11:43:24.848Z,18.30
2022-10-31T11:44:24.668Z,18.27
2022-10-31T11:45:24.500Z,18.30
2022-10-31T11:46:24.322Z,18.30
2022-10-31T11:47:24.150Z,18.28
2022-10-31T11:48:23.971Z,18.30
2022-10-31T11:49:23.788Z,18.28
2022-10-31T11:50:23.613Z,18.26
2022-10-31T11:51:23.432Z,18.31
2022-10-31T11:52:23.299Z,18.34
2022-10-31T11:53:23.090Z,18.36
2022-10-31T11:54:22.913Z,18.39
2022-10-31T11:55:22.743Z,18.42
2022-10-31T11:56:22.562Z,18.56
2022-10-31T11:57:22.394Z,18.61
2022-10-31T11:58:22.203Z,18.64
2022-10-31T11:59:22.028Z,18.75
2022-10-31T12:00:21.898Z,18.81
2022-10-31T12:01:21.685Z,18.86
2022-10-31T12:02:21.543Z,18.89
2022-10-31T12:03:21.338Z,18.88
2022-10-31T12:04:21.117Z,18.85
2022-10-31T12:05:20.947Z,18.85
2022-10-31T12:06:20.768Z,18.81
2022-10-31T12:07:20.584Z,18.82
2022-10-31T12:08:20.408Z,18.83
2022-10-31T12:09:20.228Z,18.83
2022-10-31T12:10:20.028Z,18.81
2022-10-31T12:11:19.850Z,18.78
2022-10-31T12:12:19.669Z,18.82
2022-10-31T12:13:19.486Z,18.85
2022-10-31T12:14:19.310Z,18.86
2022-10-31T12:15:19.116Z,18.88
2022-10-31T12:16:18.930Z,19.05
2022-10-31T12:17:18.763Z,19.07
2022-10-31T12:18:18.583Z,19.13
2022-10-31T12:19:18.415Z,19.09
2022-10-31T12:20:18.212Z,19.07
2022-10-31T12:21:18.023Z,19.08
2022-10-31T12:22:17.839Z,19.05
2022-10-31T12:23:17.663Z,19.12
2022-10-31T12:24:17.506Z,19.19
2022-10-31T12:25:17.293Z,19.19
2022-10-31T12:26:17.114Z,19.20
2022-10-31T12:27:16.931Z,19.22
2022-10-31T12:28:16.737Z,19.27
2022-10-31T12:29:16.588Z,19.26
2022-10-31T12:30:16.376Z,19.26
2022-10-31T12:31:16.190Z,19.23
2022-10-31T12:32:15.998Z,19.22
2022-10-31T12:33:15.820Z,19.19
2022-10-31T12:34:15.638Z,19.16
2022-10-31T12:35:15.432Z,19.15
2022-10-31T12:36:15.651Z,19.13
2022-10-31T12:37:15.082Z,19.13
2022-10-31T12:38:14.871Z,19.16
2022-10-31T12:39:14.692Z,19.19
2022-10-31T12:40:14.670Z,19.20
2022-10-31T12:41:14.311Z,19.19
2022-10-31T12:42:14.133Z,19.19
2022-10-31T12:43:13.955Z,19.13
2022-10-31T12:44:13.754Z,19.12
2022-10-31T12:45:13.585Z,19.09
2022-10-31T12:46:13.382Z,19.05
2022-10-31T12:47:13.181Z,19.04
2022-10-31T12:48:12.993Z,18.98
2022-10-31T12:49:12.816Z,18.97
2022-10-31T12:50:12.634Z,18.94
2022-10-31T12:51:12.417Z,18.96
2022-10-31T12:52:12.246Z,18.97
2022-10-31T12:53:12.072Z,18.94
2022-10-31T12:54:11.858Z,18.93
2022-10-31T12:55:11.686Z,18.83
2022-10-31T12:56:11.467Z,18.89
2022-10-31T12:57:11.287Z,18.94
2022-10-31T12:58:11.098Z,18.93
2022-10-31T12:59:10.916Z,18.93
2022-10-31T13:00:10.749Z,18.93
2022-10-31T13:01:10.700Z,18.89
2022-10-31T13:02:10.464Z,18.86
2022-10-31T13:03:10.180Z,18.89
2022-10-31T13:04:09.980Z,18.88
2022-10-31T13:05:09.791Z,18.86
2022-10-31T13:06:09.621Z,18.88
2022-10-31T13:07:09.421Z,18.89
2022-10-31T13:08:09.235Z,18.91
2022-10-31T13:09:09.063Z,18.93
2022-10-31T13:10:08.873Z,18.89
2022-10-31T13:11:08.681Z,18.91
2022-10-31T13:12:08.494Z,18.93
2022-10-31T13:13:08.323Z,18.93